Time;durP1;ratioP1;P1;durP2;ratioP2;P2;SDS_P1;SDS_P2;PMS_P1;PMS_P2;Temp;Humidity;BMP_temperature;BMP_pressure;BME280_temperature;BME280_humidity;BME280_pressure;Samples;Min_cycle;Max_cycle;Signal;HPM_P1;HPM_P2
2022/03/22 00:01:14;;;;;;;116.88;70.50;;;6.20;99.90;;;;;;5006777;28;20057;-67
2022/03/22 00:03:43;;;;;;;115.55;70.47;;;6.20;99.90;;;;;;5017298;28;20049;-67
2022/03/22 00:06:09;;;;;;;115.78;69.57;;;6.10;99.90;;;;;;4999445;28;20057;-67
2022/03/22 00:08:34;;;;;;;105.68;63.83;;;6.10;99.90;;;;;;5016272;28;20057;-68
2022/03/22 00:11:00;;;;;;;107.57;67.75;;;6.10;99.90;;;;;;5008221;28;20128;-68
2022/03/22 00:13:28;;;;;;;107.72;66.55;;;6.00;99.90;;;;;;5008039;28;20041;-67
2022/03/22 00:15:54;;;;;;;115.90;70.72;;;6.00;99.90;;;;;;5010610;28;20051;-68
2022/03/22 00:18:19;;;;;;;111.50;63.95;;;6.00;99.90;;;;;;4993311;28;20410;-68
2022/03/22 00:20:45;;;;;;;117.53;71.82;;;5.90;99.90;;;;;;5007631;28;20140;-67
2022/03/22 00:23:13;;;;;;;109.70;62.75;;;5.90;99.90;;;;;;5015900;28;20053;-67
2022/03/22 00:25:38;;;;;;;103.05;62.58;;;5.90;99.90;;;;;;5013982;28;20132;-67
2022/03/22 00:28:05;;;;;;;112.10;65.32;;;6.00;99.90;;;;;;5014716;28;20140;-68
2022/03/22 00:30:33;;;;;;;125.95;69.70;;;5.90;99.90;;;;;;5011468;28;20115;-67
2022/03/22 00:33:02;;;;;;;109.65;66.00;;;5.80;99.90;;;;;;5018699;28;20045;-67
2022/03/22 00:35:36;;;;;;;105.72;64.55;;;5.80;99.90;;;;;;5018131;28;20046;-68
2022/03/22 00:38:04;;;;;;;100.88;61.15;;;5.80;99.90;;;;;;5016161;28;20462;-67
2022/03/22 00:40:30;;;;;;;105.32;66.82;;;5.80;99.90;;;;;;5023365;28;20499;-68
2022/03/22 00:42:57;;;;;;;103.72;63.50;;;5.80;99.90;;;;;;5011484;28;20045;-67
2022/03/22 00:45:27;;;;;;;99.72;67.95;;;5.80;99.90;;;;;;5023311;28;20085;-67
2022/03/22 00:47:54;;;;;;;105.70;66.20;;;5.70;99.90;;;;;;5015372;28;20056;-68
2022/03/22 00:50:28;;;;;;;106.20;66.38;;;5.70;99.90;;;;;;5020669;28;20045;-67
2022/03/22 00:52:56;;;;;;;108.03;65.93;;;5.70;99.90;;;;;;5007210;28;20492;-67
2022/03/22 00:55:23;;;;;;;96.72;61.03;;;5.70;99.90;;;;;;5011607;28;20136;-67
2022/03/22 00:57:51;;;;;;;115.13;66.00;;;5.70;99.90;;;;;;5010966;28;20564;-67
2022/03/22 01:00:18;;;;;;;97.13;62.75;;;5.60;99.90;;;;;;5006310;28;20136;-67
2022/03/22 01:02:49;;;;;;;116.13;66.50;;;5.60;99.90;;;;;;5014813;28;20045;-67
2022/03/22 01:05:19;;;;;;;117.93;66.95;;;5.50;99.90;;;;;;5015309;28;20125;-67
2022/03/22 01:07:50;;;;;;;115.60;70.57;;;5.50;99.90;;;;;;5013639;28;20498;-67
2022/03/22 01:10:18;;;;;;;119.78;73.53;;;5.50;99.90;;;;;;5019254;28;20486;-67
2022/03/22 01:12:45;;;;;;;108.60;70.82;;;5.50;99.90;;;;;;5014496;28;20045;-67
2022/03/22 01:15:15;;;;;;;125.70;74.57;;;5.50;99.90;;;;;;5015007;28;20046;-66
2022/03/22 01:17:44;;;;;;;113.43;69.47;;;5.40;99.90;;;;;;5017902;28;20555;-67
2022/03/22 01:20:11;;;;;;;121.43;72.47;;;5.40;99.90;;;;;;5011280;28;20054;-67
2022/03/22 01:22:38;;;;;;;126.65;76.95;;;5.40;99.90;;;;;;5009033;28;20069;-68
2022/03/22 01:25:07;;;;;;;123.47;73.55;;;5.40;99.90;;;;;;5008850;28;20053;-68
2022/03/22 01:27:33;;;;;;;133.77;78.05;;;5.40;99.90;;;;;;5010768;28;20042;-68
2022/03/22 01:30:00;;;;;;;115.97;73.07;;;5.30;99.90;;;;;;5019748;28;20438;-68
2022/03/22 01:32:25;;;;;;;123.68;71.53;;;5.30;99.90;;;;;;5017264;28;20042;-67
2022/03/22 01:34:51;;;;;;;130.38;76.75;;;5.30;99.90;;;;;;5016576;28;20518;-68
2022/03/22 01:37:17;;;;;;;133.20;77.32;;;5.30;99.90;;;;;;5018022;28;20046;-67
2022/03/22 01:39:43;;;;;;;126.60;73.68;;;5.30;99.90;;;;;;5010740;28;20146;-67
2022/03/22 01:42:09;;;;;;;123.32;76.28;;;5.20;99.90;;;;;;5010965;28;20500;-67
2022/03/22 01:44:35;;;;;;;114.40;71.95;;;5.20;99.90;;;;;;5010184;28;20065;-68
2022/03/22 01:47:02;;;;;;;118.22;69.22;;;5.20;99.90;;;;;;5004144;28;20054;-68
2022/03/22 01:49:27;;;;;;;126.97;73.15;;;5.20;99.90;;;;;;5008329;28;20058;-67
2022/03/22 01:51:55;;;;;;;123.65;71.45;;;5.20;99.90;;;;;;5026275;28;20518;-66
2022/03/22 01:54:20;;;;;;;134.80;81.90;;;5.20;99.90;;;;;;5022873;28;20049;-68
2022/03/22 01:56:47;;;;;;;136.50;76.25;;;5.20;99.90;;;;;;5009419;28;20040;-68
2022/03/22 01:59:13;;;;;;;120.15;72.68;;;5.20;99.90;;;;;;5020334;28;20046;-68
2022/03/22 02:07:21;;;;;;;134.50;81.38;;;5.00;99.90;;;;;;5015221;28;20116;-67
2022/03/22 02:09:46;;;;;;;136.60;79.30;;;5.00;99.90;;;;;;5014549;28;20419;-68
2022/03/22 02:12:12;;;;;;;134.75;82.45;;;5.00;99.90;;;;;;5008291;28;20045;-67
2022/03/22 02:14:38;;;;;;;134.75;80.90;;;5.00;99.90;;;;;;5010228;28;20033;-67
2022/03/22 02:17:10;;;;;;;129.68;79.88;;;5.00;99.90;;;;;;5014153;28;20057;-67
2022/03/22 02:19:40;;;;;;;134.50;82.63;;;5.00;99.90;;;;;;5009256;28;20491;-67
2022/03/22 02:22:09;;;;;;;131.73;82.60;;;5.00;99.90;;;;;;5014701;28;20121;-67
2022/03/22 02:24:36;;;;;;;130.75;80.32;;;4.90;99.90;;;;;;5015680;28;20128;-67
2022/03/22 02:27:02;;;;;;;126.97;77.97;;;4.90;99.90;;;;;;5012201;28;20060;-67
2022/03/22 02:29:28;;;;;;;124.10;75.25;;;4.90;99.90;;;;;;5019201;28;20510;-67
2022/03/22 02:31:54;;;;;;;145.18;87.40;;;4.90;99.90;;;;;;5016221;28;20049;-67
2022/03/22 02:34:20;;;;;;;129.48;75.68;;;4.90;99.90;;;;;;5016878;28;20041;-67
2022/03/22 02:36:46;;;;;;;124.10;76.03;;;4.90;99.90;;;;;;5015143;28;20041;-67
2022/03/22 02:39:12;;;;;;;140.20;80.25;;;4.90;99.90;;;;;;5003209;28;20046;-68
2022/03/22 02:41:38;;;;;;;137.80;82.10;;;4.90;99.90;;;;;;5011338;28;20384;-66
2022/03/22 02:44:04;;;;;;;136.10;80.20;;;4.90;99.90;;;;;;5010225;28;20042;-67
2022/03/22 02:46:30;;;;;;;128.68;75.82;;;4.90;99.90;;;;;;5008029;28;20061;-67
2022/03/22 02:48:55;;;;;;;130.63;79.97;;;4.90;99.90;;;;;;4998847;28;20099;-66
2022/03/22 02:51:21;;;;;;;122.80;74.22;;;4.80;99.90;;;;;;5009016;28;20073;-67
2022/03/22 02:53:47;;;;;;;140.02;78.18;;;4.80;99.90;;;;;;5006071;28;20034;-68
2022/03/22 02:56:13;;;;;;;128.18;79.00;;;4.80;99.90;;;;;;5005064;28;20050;-68
2022/03/22 02:58:39;;;;;;;135.25;79.88;;;4.80;99.90;;;;;;5001220;28;20125;-69
2022/03/22 03:01:05;;;;;;;153.57;84.13;;;4.80;99.90;;;;;;4991658;28;20045;-68
2022/03/22 03:03:32;;;;;;;131.13;78.75;;;4.80;99.90;;;;;;5008222;28;20054;-68
2022/03/22 03:05:58;;;;;;;118.03;72.25;;;4.70;99.90;;;;;;5009613;28;20108;-67
2022/03/22 03:08:26;;;;;;;118.72;72.72;;;4.60;99.90;;;;;;5003269;28;20681;-68
2022/03/22 03:10:53;;;;;;;122.03;72.18;;;4.60;99.90;;;;;;5009309;28;20081;-68
2022/03/22 03:13:19;;;;;;;118.50;71.70;;;4.60;99.90;;;;;;5007555;28;20156;-67
2022/03/22 03:15:45;;;;;;;123.72;71.75;;;4.60;99.90;;;;;;5021600;28;20129;-68
2022/03/22 03:18:13;;;;;;;129.75;79.93;;;4.60;99.90;;;;;;5008974;28;20454;-68
2022/03/22 03:20:39;;;;;;;128.48;79.68;;;4.60;99.90;;;;;;4996077;28;20050;-68
2022/03/22 03:23:05;;;;;;;129.82;77.53;;;4.50;99.90;;;;;;5007819;28;20048;-68
2022/03/22 03:25:31;;;;;;;122.28;70.80;;;4.50;99.90;;;;;;5023346;28;20136;-68
2022/03/22 03:27:56;;;;;;;114.50;69.45;;;4.50;99.90;;;;;;5009193;28;20056;-68
2022/03/22 03:30:22;;;;;;;112.55;68.30;;;4.40;99.90;;;;;;5020773;28;20041;-68
2022/03/22 03:32:48;;;;;;;122.15;69.60;;;4.40;99.90;;;;;;5010342;28;20036;-67
2022/03/22 03:35:14;;;;;;;125.43;76.25;;;4.50;99.90;;;;;;5008713;28;20146;-68
2022/03/22 03:37:46;;;;;;;121.97;76.25;;;4.40;99.90;;;;;;5009721;28;20120;-68
2022/03/22 03:40:12;;;;;;;116.35;73.22;;;4.40;99.90;;;;;;5009350;28;20056;-68
2022/03/22 03:42:42;;;;;;;92.68;59.90;;;4.30;99.90;;;;;;5008866;28;20037;-67
2022/03/22 03:47:57;;;;;;;55.28;41.67;;;4.30;99.90;;;;;;4997967;28;20045;-68
2022/03/22 03:50:23;;;;;;;69.07;47.33;;;4.30;99.90;;;;;;5009223;28;20057;-68
2022/03/22 03:52:49;;;;;;;91.95;57.22;;;4.30;99.90;;;;;;5009952;28;20589;-68
2022/03/22 03:55:15;;;;;;;102.50;61.33;;;4.20;99.90;;;;;;5001354;28;20062;-68
2022/03/22 03:57:41;;;;;;;110.03;67.20;;;4.20;99.90;;;;;;5008722;28;20487;-68
2022/03/22 04:00:07;;;;;;;115.28;71.00;;;4.20;99.90;;;;;;5008860;28;20053;-68
2022/03/22 04:02:33;;;;;;;116.18;73.63;;;4.20;99.90;;;;;;4997113;28;20044;-67
2022/03/22 04:04:59;;;;;;;127.38;70.75;;;4.20;99.90;;;;;;5008381;28;20045;-67
2022/03/22 04:07:27;;;;;;;115.05;72.40;;;4.20;99.90;;;;;;5009597;28;20499;-68
2022/03/22 04:09:56;;;;;;;113.65;71.57;;;4.20;99.90;;;;;;5013614;28;20192;-68
2022/03/22 04:12:23;;;;;;;107.68;66.95;;;4.20;99.90;;;;;;5012220;28;20050;-67
2022/03/22 04:14:51;;;;;;;111.82;70.05;;;4.20;99.90;;;;;;5012185;28;20050;-67
2022/03/22 04:17:17;;;;;;;119.45;75.80;;;4.20;99.90;;;;;;4999345;28;20515;-67
2022/03/22 04:19:45;;;;;;;102.15;63.50;;;4.10;99.90;;;;;;5017967;28;20510;-68
2022/03/22 04:22:10;;;;;;;73.07;46.95;;;4.10;99.90;;;;;;5013090;28;20184;-67
2022/03/22 04:24:36;;;;;;;59.15;43.47;;;4.00;99.90;;;;;;5012618;28;20530;-68
2022/03/22 04:32:44;;;;;;;75.28;50.88;;;4.00;99.90;;;;;;5016922;28;20104;-67
2022/03/22 04:35:17;;;;;;;83.50;53.03;;;4.00;99.90;;;;;;5018866;28;20415;-68
2022/03/22 04:37:44;;;;;;;85.72;56.45;;;4.00;99.90;;;;;;5011180;28;20042;-67
2022/03/22 04:40:10;;;;;;;85.57;56.15;;;3.90;99.90;;;;;;5012835;28;20563;-67
2022/03/22 04:42:37;;;;;;;86.20;54.55;;;4.00;99.90;;;;;;5012933;28;20113;-68
2022/03/22 04:45:03;;;;;;;91.30;59.28;;;3.90;99.90;;;;;;5012824;28;20049;-68
2022/03/22 04:47:29;;;;;;;84.30;57.58;;;3.90;99.90;;;;;;5015455;28;20046;-67
2022/03/22 04:49:55;;;;;;;68.13;46.83;;;3.90;99.90;;;;;;5021031;28;20053;-68
2022/03/22 04:57:51;;;;;;;45.85;33.58;;;3.70;99.90;;;;;;5023411;28;20112;-68
2022/03/22 05:00:16;;;;;;;49.90;34.10;;;3.70;99.90;;;;;;5005037;28;20529;-67
2022/03/22 05:02:42;;;;;;;50.35;36.67;;;3.70;99.90;;;;;;5010675;28;20049;-68
2022/03/22 05:05:08;;;;;;;61.28;42.42;;;3.70;99.90;;;;;;5023008;28;20084;-68
2022/03/22 05:07:35;;;;;;;65.32;46.00;;;3.60;99.90;;;;;;5012805;28;20099;-68
2022/03/22 05:10:00;;;;;;;59.28;42.38;;;3.70;99.90;;;;;;5007900;28;20046;-68
2022/03/22 05:12:26;;;;;;;68.90;44.90;;;3.60;99.90;;;;;;5012015;28;20048;-68
2022/03/22 05:14:52;;;;;;;69.05;47.05;;;3.60;99.90;;;;;;5021394;28;20056;-67
2022/03/22 05:17:23;;;;;;;66.30;45.90;;;3.50;99.90;;;;;;5012944;28;20045;-68
2022/03/22 05:19:50;;;;;;;73.45;46.75;;;3.50;99.90;;;;;;5011094;28;20524;-68
2022/03/22 05:22:17;;;;;;;74.57;48.25;;;3.50;99.90;;;;;;5023337;28;20086;-68
2022/03/22 05:24:43;;;;;;;93.47;54.20;;;3.50;99.90;;;;;;5020601;28;20076;-68
2022/03/22 05:27:09;;;;;;;71.88;50.95;;;3.50;99.90;;;;;;5014724;28;20093;-67
2022/03/22 05:29:35;;;;;;;72.90;47.25;;;3.50;99.90;;;;;;5013142;28;20056;-68
2022/03/22 05:32:01;;;;;;;96.68;58.47;;;3.50;99.90;;;;;;5010206;28;20664;-67
2022/03/22 05:34:27;;;;;;;99.18;58.58;;;3.50;99.90;;;;;;5022694;28;20046;-68
2022/03/22 05:36:52;;;;;;;96.05;60.53;;;3.50;99.90;;;;;;5011700;28;20042;-68
2022/03/22 05:39:18;;;;;;;97.32;61.92;;;3.60;99.90;;;;;;5011976;28;20848;-68
2022/03/22 05:41:44;;;;;;;96.43;58.90;;;3.60;99.90;;;;;;5011001;28;20463;-68
2022/03/22 05:44:12;;;;;;;89.47;56.78;;;3.60;99.90;;;;;;5010506;28;20065;-68
2022/03/22 05:46:41;;;;;;;86.93;56.45;;;3.60;99.90;;;;;;5010334;28;20084;-68
2022/03/22 05:49:13;;;;;;;94.32;61.10;;;3.60;99.90;;;;;;5010126;28;20052;-68
2022/03/22 05:51:39;;;;;;;92.38;60.38;;;3.60;99.90;;;;;;5010434;28;20493;-68
2022/03/22 05:54:05;;;;;;;103.90;59.63;;;3.60;99.90;;;;;;5022583;28;20042;-68
2022/03/22 05:56:31;;;;;;;94.07;58.03;;;3.60;99.90;;;;;;5009359;28;20077;-68
2022/03/22 05:58:59;;;;;;;86.50;56.38;;;3.60;99.90;;;;;;5001611;28;20056;-68
2022/03/22 06:01:27;;;;;;;83.22;53.42;;;3.50;99.90;;;;;;5016585;28;20144;-68
2022/03/22 06:03:53;;;;;;;101.60;60.60;;;3.50;99.90;;;;;;5019310;28;20088;-68
2022/03/22 06:06:20;;;;;;;90.65;58.65;;;3.60;99.90;;;;;;5009308;28;20042;-67
2022/03/22 06:08:45;;;;;;;101.32;63.05;;;3.60;99.90;;;;;;4989202;28;20053;-67
2022/03/22 06:11:11;;;;;;;98.68;61.88;;;3.60;99.90;;;;;;5017953;28;20045;-68
2022/03/22 06:13:37;;;;;;;99.07;60.08;;;3.70;99.90;;;;;;5016948;28;20050;-68
2022/03/22 06:16:05;;;;;;;99.80;60.20;;;3.70;99.90;;;;;;5021858;28;20030;-68
2022/03/22 06:18:30;;;;;;;90.72;60.47;;;3.70;99.90;;;;;;5011522;28;20085;-67
2022/03/22 06:20:57;;;;;;;112.80;65.70;;;3.70;99.90;;;;;;5024648;28;20076;-67
2022/03/22 06:23:23;;;;;;;99.97;65.57;;;3.70;99.90;;;;;;5009101;28;20069;-67
2022/03/22 06:25:51;;;;;;;97.03;62.35;;;3.80;99.90;;;;;;5007101;28;20132;-68
2022/03/22 06:28:18;;;;;;;109.75;66.85;;;3.90;99.90;;;;;;5008637;28;20089;-67
2022/03/22 06:30:44;;;;;;;95.45;63.13;;;3.90;99.90;;;;;;5018892;28;20049;-67
2022/03/22 06:33:13;;;;;;;107.75;63.58;;;3.90;99.90;;;;;;5023496;28;20647;-68
2022/03/22 06:35:41;;;;;;;106.57;66.75;;;4.00;99.90;;;;;;5013895;28;20096;-68
2022/03/22 06:38:07;;;;;;;107.45;65.40;;;4.10;99.90;;;;;;5011900;28;20041;-68
2022/03/22 06:40:34;;;;;;;108.60;68.57;;;4.20;99.90;;;;;;5019868;28;20056;-67
2022/03/22 06:43:04;;;;;;;99.75;66.10;;;4.20;99.90;;;;;;5010000;28;20046;-67
2022/03/22 06:45:30;;;;;;;113.13;67.10;;;4.30;99.90;;;;;;5019490;28;20053;-68
2022/03/22 06:47:56;;;;;;;117.38;73.68;;;4.30;99.90;;;;;;5011418;28;20052;-68
2022/03/22 06:50:21;;;;;;;118.70;73.55;;;4.40;99.90;;;;;;5009250;28;20060;-67
2022/03/22 06:52:47;;;;;;;125.55;74.35;;;4.50;99.90;;;;;;5007818;28;20053;-68
2022/03/22 06:55:16;;;;;;;114.95;71.82;;;4.60;99.90;;;;;;5008875;28;20120;-68
2022/03/22 06:57:41;;;;;;;;;;;4.80;99.90;;;;;;5007828;28;20045;-68
2022/03/22 07:00:10;;;;;;;118.20;69.53;;;4.90;99.90;;;;;;5010701;28;19932;-68
2022/03/22 07:02:38;;;;;;;;;;;5.00;99.90;;;;;;5015552;28;20497;-68
2022/03/22 07:05:04;;;;;;;119.47;73.18;;;5.10;99.90;;;;;;5008301;28;20718;-68
2022/03/22 07:07:30;;;;;;;127.15;75.47;;;5.20;99.90;;;;;;5020290;28;20081;-67
2022/03/22 07:09:55;;;;;;;116.43;73.13;;;5.40;99.90;;;;;;5008655;28;20069;-68
2022/03/22 07:12:21;;;;;;;111.72;71.05;;;5.60;99.90;;;;;;5009531;28;20462;-70
2022/03/22 07:14:47;;;;;;;102.72;65.82;;;5.80;99.90;;;;;;5009281;28;20072;-70
2022/03/22 07:17:12;;;;;;;108.82;71.00;;;6.00;99.90;;;;;;5012194;28;20495;-70
2022/03/22 07:19:38;;;;;;;114.82;75.30;;;6.20;99.90;;;;;;5005959;28;20121;-69
2022/03/22 07:22:05;;;;;;;113.75;74.65;;;6.40;99.90;;;;;;5000471;28;20046;-69
2022/03/22 07:24:32;;;;;;;112.85;71.13;;;6.50;99.90;;;;;;5007592;28;20050;-69
2022/03/22 07:26:57;;;;;;;117.88;71.45;;;6.70;99.90;;;;;;5012275;28;20052;-72
2022/03/22 07:29:23;;;;;;;120.53;76.03;;;6.90;99.90;;;;;;5009803;28;20073;-69
2022/03/22 07:31:49;;;;;;;107.55;71.13;;;7.10;99.90;;;;;;5007521;28;21084;-68
2022/03/22 07:34:17;;;;;;;108.13;71.43;;;7.30;99.90;;;;;;5006243;28;20041;-71
2022/03/22 07:36:44;;;;;;;115.07;70.88;;;7.50;99.90;;;;;;5008386;28;20053;-69
2022/03/22 07:39:11;;;;;;;105.88;69.03;;;7.70;99.90;;;;;;5009723;28;20049;-68
2022/03/22 07:41:38;;;;;;;104.05;69.93;;;7.90;99.90;;;;;;5007541;28;20159;-69
2022/03/22 07:44:06;;;;;;;102.82;67.40;;;8.10;99.90;;;;;;4997444;28;20046;-68
2022/03/22 07:46:33;;;;;;;104.03;66.22;;;8.30;99.90;;;;;;5007704;28;20093;-68
2022/03/22 07:54:29;;;;;;;104.13;67.43;;;9.00;99.90;;;;;;5007176;28;20046;-68
2022/03/22 07:56:54;;;;;;;101.30;66.15;;;9.10;99.90;;;;;;5012712;28;20042;-68
2022/03/22 07:59:20;;;;;;;117.72;67.13;;;9.30;99.90;;;;;;5002375;28;20488;-68
2022/03/22 08:01:47;;;;;;;95.00;63.25;;;9.50;99.90;;;;;;5012971;28;20044;-68
2022/03/22 08:04:12;;;;;;;97.32;63.33;;;9.70;99.90;;;;;;5010153;28;20065;-68
2022/03/22 08:06:38;;;;;;;106.25;65.80;;;9.90;99.90;;;;;;5007383;28;20172;-69
2022/03/22 08:09:05;;;;;;;95.13;63.40;;;10.00;99.90;;;;;;5001201;28;20042;-69
2022/03/22 08:11:31;;;;;;;88.95;60.75;;;10.10;99.90;;;;;;5016510;28;20049;-69
2022/03/22 08:13:59;;;;;;;89.15;61.05;;;10.30;99.90;;;;;;5011917;28;20046;-66
2022/03/22 08:16:26;;;;;;;90.18;62.10;;;10.50;99.90;;;;;;4998947;28;20054;-66
2022/03/22 08:18:52;;;;;;;94.63;60.17;;;10.60;99.90;;;;;;5007611;28;20518;-66
2022/03/22 08:21:18;;;;;;;92.97;60.13;;;10.80;99.90;;;;;;5008377;28;20050;-66
2022/03/22 08:23:44;;;;;;;99.47;62.55;;;11.00;99.90;;;;;;5004366;28;20061;-66
2022/03/22 08:26:10;;;;;;;101.30;67.50;;;11.10;99.90;;;;;;5002630;28;20660;-66
2022/03/22 08:28:36;;;;;;;93.45;62.38;;;11.30;99.90;;;;;;5004239;28;20184;-66
2022/03/22 08:31:01;;;;;;;90.75;60.92;;;11.50;99.90;;;;;;5002411;28;20425;-65
2022/03/22 08:33:27;;;;;;;99.32;64.55;;;11.60;99.90;;;;;;5006944;28;20490;-65
2022/03/22 08:35:52;;;;;;;90.30;62.92;;;11.70;99.90;;;;;;5008269;28;20042;-65
2022/03/22 08:38:21;;;;;;;93.80;63.33;;;11.80;99.90;;;;;;5000655;28;20492;-66
2022/03/22 08:40:48;;;;;;;97.35;59.97;;;11.90;99.90;;;;;;5008333;28;20133;-66
2022/03/22 08:43:14;;;;;;;100.97;62.00;;;12.10;99.90;;;;;;5000260;28;20046;-66
2022/03/22 08:45:40;;;;;;;89.97;57.13;;;12.20;99.90;;;;;;5002534;28;20184;-65
2022/03/22 08:48:10;;;;;;;92.25;60.67;;;12.40;99.90;;;;;;5003368;28;20140;-66
2022/03/22 08:50:38;;;;;;;98.55;63.40;;;12.40;99.90;;;;;;5007372;28;20049;-66
2022/03/22 08:53:05;;;;;;;85.20;58.83;;;12.50;99.90;;;;;;5009157;28;20412;-66
2022/03/22 08:55:31;;;;;;;97.18;58.70;;;12.60;99.90;;;;;;5007366;28;20058;-66
2022/03/22 08:57:57;;;;;;;91.20;58.83;;;12.70;99.90;;;;;;5008515;28;20041;-66
2022/03/22 09:00:22;;;;;;;83.15;54.92;;;12.90;99.90;;;;;;4998881;28;20053;-66
2022/03/22 09:02:50;;;;;;;83.90;55.03;;;13.00;99.90;;;;;;5006740;28;20038;-66
2022/03/22 09:08:01;;;;;;;86.78;57.20;;;13.30;99.90;;;;;;5014142;28;20041;-66
2022/03/22 09:10:29;;;;;;;85.80;57.10;;;13.40;99.90;;;;;;5010440;28;20164;-66
2022/03/22 09:12:56;;;;;;;92.40;56.67;;;13.60;99.90;;;;;;5011438;28;20538;-66
2022/03/22 09:15:23;;;;;;;85.95;58.38;;;13.80;99.90;;;;;;5009797;28;20546;-65
2022/03/22 09:17:50;;;;;;;82.50;53.30;;;13.90;99.90;;;;;;5011732;28;20791;-67
2022/03/22 09:20:16;;;;;;;86.70;54.92;;;14.10;99.90;;;;;;5010685;28;20080;-66
2022/03/22 09:22:43;;;;;;;77.13;52.50;;;14.20;99.90;;;;;;5023232;28;20498;-66
2022/03/22 09:25:10;;;;;;;82.47;56.25;;;14.40;99.90;;;;;;5010063;28;20054;-66
2022/03/22 09:27:37;;;;;;;85.97;52.17;;;14.50;99.90;;;;;;5014628;28;20089;-66
2022/03/22 09:30:04;;;;;;;84.00;51.35;;;14.70;99.90;;;;;;5006681;28;20050;-66
2022/03/22 09:32:30;;;;;;;83.15;50.17;;;14.80;99.90;;;;;;5010203;28;20053;-66
2022/03/22 09:34:58;;;;;;;85.15;51.35;;;14.90;99.90;;;;;;5011155;28;20400;-66
2022/03/22 09:37:24;;;;;;;83.95;53.40;;;15.00;99.90;;;;;;5016276;28;20053;-65
2022/03/22 09:39:50;;;;;;;71.25;50.17;;;15.20;99.90;;;;;;5014910;28;20046;-66
2022/03/22 09:42:16;;;;;;;75.70;48.78;;;15.30;99.90;;;;;;5010891;28;20049;-66
2022/03/22 09:44:48;;;;;;;83.70;49.75;;;15.40;98.40;;;;;;5010202;28;20067;-66
2022/03/22 09:47:15;;;;;;;84.18;51.92;;;15.60;96.80;;;;;;5009560;28;20503;-66
2022/03/22 09:49:41;;;;;;;75.88;49.03;;;15.70;95.00;;;;;;5018801;28;20038;-66
2022/03/22 09:52:08;;;;;;;76.47;47.40;;;15.80;94.80;;;;;;5009713;28;20180;-68
2022/03/22 09:54:34;;;;;;;74.78;47.70;;;16.00;92.70;;;;;;5011315;28;20053;-68
2022/03/22 09:56:59;;;;;;;74.65;46.00;;;16.10;92.00;;;;;;5007347;28;20103;-68
2022/03/22 09:59:25;;;;;;;74.63;47.33;;;16.20;88.20;;;;;;5006078;28;20530;-68
2022/03/22 10:01:51;;;;;;;69.63;46.25;;;16.30;85.60;;;;;;5009231;28;20041;-68
2022/03/22 10:04:17;;;;;;;65.97;43.17;;;16.40;83.60;;;;;;5008409;28;20049;-73
2022/03/22 10:06:51;;;;;;;70.35;43.08;;;16.40;77.10;;;;;;5011457;28;20096;-73
2022/03/22 10:09:31;;;;;;;68.57;45.67;;;16.60;74.10;;;;;;5014317;28;20057;-73
2022/03/22 10:11:58;;;;;;;70.07;46.20;;;16.70;75.00;;;;;;5006375;28;20129;-73
2022/03/22 10:14:38;;;;;;;66.22;46.90;;;16.70;76.40;;;;;;5009592;28;20045;-73
2022/03/22 10:17:15;;;;;;;75.15;46.45;;;16.90;74.30;;;;;;5012187;28;20053;-73
2022/03/22 10:19:51;;;;;;;72.53;46.00;;;17.00;75.70;;;;;;5008188;28;20510;-73
2022/03/22 10:22:27;;;;;;;74.95;47.33;;;17.10;72.20;;;;;;5002483;28;20389;-72
2022/03/22 10:24:58;;;;;;;67.78;42.85;;;17.20;70.20;;;;;;5004798;28;20119;-72
2022/03/22 10:27:26;;;;;;;79.65;47.97;;;17.30;72.70;;;;;;5004951;28;20052;-72
2022/03/22 10:30:03;;;;;;;77.00;48.72;;;17.40;70.70;;;;;;5009503;28;20049;-71
2022/03/22 10:32:34;;;;;;;79.40;46.22;;;17.50;72.20;;;;;;5005952;28;20041;-73
2022/03/22 10:35:16;;;;;;;76.78;49.42;;;17.50;67.80;;;;;;5005463;28;20100;-73
2022/03/22 10:37:47;;;;;;;86.78;51.20;;;17.60;70.50;;;;;;5019634;28;20088;-72
2022/03/22 10:40:46;;;;;;;73.95;45.28;;;17.60;70.50;;;;;;5002534;28;20096;-72
2022/03/22 10:43:19;;;;;;;80.60;50.83;;;17.60;70.20;;;;;;5006506;28;20451;-73
2022/03/22 10:46:00;;;;;;;74.72;45.03;;;17.80;71.20;;;;;;5017593;28;20068;-72
2022/03/22 10:48:32;;;;;;;78.65;46.97;;;17.80;69.20;;;;;;5010985;28;20049;-72
2022/03/22 10:50:59;;;;;;;70.30;44.63;;;17.80;68.10;;;;;;5009944;28;20168;-72
2022/03/22 10:53:28;;;;;;;69.85;45.35;;;17.90;67.30;;;;;;5008539;28;20072;-71
2022/03/22 10:55:55;;;;;;;66.80;42.83;;;18.00;66.20;;;;;;5009573;28;20046;-72
2022/03/22 10:58:25;;;;;;;71.13;44.78;;;18.00;65.00;;;;;;5002379;28;20096;-72
2022/03/22 11:00:52;;;;;;;67.65;41.50;;;18.20;63.20;;;;;;5010506;28;20092;-72
2022/03/22 11:03:18;;;;;;;74.75;44.33;;;18.20;63.30;;;;;;5009377;28;20073;-72
2022/03/22 11:05:54;;;;;;;70.07;40.83;;;18.20;62.40;;;;;;5010409;28;20518;-72
2022/03/22 11:08:22;;;;;;;79.40;41.33;;;18.40;60.30;;;;;;5020167;28;20045;-72
2022/03/22 11:10:49;;;;;;;73.65;42.03;;;18.40;61.40;;;;;;5010926;28;20466;-72
2022/03/22 11:13:15;;;;;;;74.23;42.03;;;18.50;61.00;;;;;;5017636;28;20060;-72
2022/03/22 11:15:44;;;;;;;76.95;43.17;;;18.50;61.40;;;;;;5008337;28;20507;-69
2022/03/22 11:18:11;;;;;;;64.28;41.95;;;18.50;59.70;;;;;;5010882;28;20415;-69
2022/03/22 11:20:51;;;;;;;72.15;40.90;;;18.70;60.40;;;;;;5009960;28;20045;-69
2022/03/22 11:23:23;;;;;;;58.30;38.25;;;18.80;57.80;;;;;;5008306;28;20041;-69
2022/03/22 11:25:49;;;;;;;72.97;40.30;;;18.90;61.20;;;;;;5007508;28;20073;-69
2022/03/22 11:28:21;;;;;;;68.55;42.25;;;19.10;60.50;;;;;;5009867;28;20115;-69
2022/03/22 11:30:48;;;;;;;73.32;42.13;;;19.10;58.80;;;;;;5022036;28;20042;-69
2022/03/22 11:36:21;;;;;;;72.68;43.38;;;19.00;58.40;;;;;;5010773;28;20393;-71
2022/03/22 11:38:51;;;;;;;82.57;40.65;;;19.10;56.60;;;;;;5005868;28;20053;-72
2022/03/22 11:44:40;;;;;;;81.05;43.03;;;19.20;55.90;;;;;;5008345;28;20068;-72
2022/03/22 11:47:07;;;;;;;67.70;41.67;;;19.20;54.90;;;;;;5007707;28;20062;-72
2022/03/22 11:50:03;;;;;;;66.75;40.38;;;19.20;57.30;;;;;;5007644;28;20057;-72
2022/03/22 11:52:40;;;;;;;73.65;44.25;;;19.20;55.60;;;;;;5005899;28;20071;-70
2022/03/22 11:55:21;;;;;;;81.88;42.22;;;19.20;56.50;;;;;;5007470;28;20092;-69
2022/03/22 11:57:48;;;;;;;74.10;41.80;;;19.30;57.00;;;;;;4997708;28;20275;-69
2022/03/22 12:00:19;;;;;;;69.65;42.38;;;19.30;57.50;;;;;;5004098;28;20046;-71
2022/03/22 12:02:51;;;;;;;74.45;44.55;;;19.30;56.70;;;;;;5008793;28;20196;-71
2022/03/22 12:05:22;;;;;;;77.03;42.13;;;19.30;57.20;;;;;;5001776;28;20407;-71
2022/03/22 12:07:50;;;;;;;80.43;43.53;;;19.40;57.30;;;;;;5007873;28;20565;-71
2022/03/22 12:10:17;;;;;;;73.78;42.10;;;19.40;57.60;;;;;;5020246;28;20073;-71
2022/03/22 12:12:50;;;;;;;69.18;41.90;;;19.60;57.90;;;;;;5008126;28;20053;-71
2022/03/22 12:15:19;;;;;;;83.78;42.28;;;19.70;57.00;;;;;;5007421;28;20053;-71
2022/03/22 12:17:45;;;;;;;73.10;43.30;;;19.70;56.50;;;;;;5004510;28;20050;-71
2022/03/22 12:20:16;;;;;;;71.10;41.38;;;19.70;55.90;;;;;;5014028;28;20052;-71
2022/03/22 12:22:49;;;;;;;79.68;45.80;;;19.60;55.30;;;;;;5015420;28;20415;-71
2022/03/22 12:25:17;;;;;;;84.93;46.83;;;19.60;55.40;;;;;;4994409;28;20053;-71
2022/03/22 12:27:52;;;;;;;74.13;41.72;;;19.70;56.10;;;;;;5007124;28;20052;-72
2022/03/22 12:30:20;;;;;;;69.35;43.53;;;19.60;55.00;;;;;;5010358;28;20050;-71
2022/03/22 12:32:50;;;;;;;72.25;43.15;;;19.70;55.10;;;;;;5003760;28;20384;-71
2022/03/22 12:35:15;;;;;;;77.70;44.22;;;19.70;55.20;;;;;;5002220;28;20061;-71
2022/03/22 12:37:41;;;;;;;76.80;44.25;;;19.70;54.60;;;;;;5009776;28;20038;-71
2022/03/22 12:40:07;;;;;;;80.18;44.40;;;19.70;55.60;;;;;;5011094;28;20056;-71
2022/03/22 12:42:33;;;;;;;82.10;46.60;;;19.60;55.00;;;;;;5010859;28;20124;-71
2022/03/22 12:44:59;;;;;;;84.57;45.90;;;19.60;54.30;;;;;;5008843;28;20137;-72
2022/03/22 12:47:25;;;;;;;80.55;45.70;;;19.60;54.30;;;;;;5020289;28;20117;-72
2022/03/22 12:49:51;;;;;;;82.60;44.03;;;19.70;55.30;;;;;;5016413;28;20169;-71
2022/03/22 12:52:16;;;;;;;119.63;45.90;;;19.80;55.30;;;;;;5010560;28;20765;-71
2022/03/22 12:54:43;;;;;;;82.75;45.08;;;19.90;55.30;;;;;;5006853;28;20720;-71
2022/03/22 12:57:13;;;;;;;75.53;44.17;;;19.90;54.20;;;;;;5005840;28;20096;-72
2022/03/22 12:59:40;;;;;;;87.03;44.85;;;19.90;55.10;;;;;;5004136;28;20104;-72
2022/03/22 13:02:06;;;;;;;85.45;45.47;;;19.90;54.60;;;;;;5012172;28;20077;-73
2022/03/22 13:04:36;;;;;;;82.97;44.92;;;19.90;54.70;;;;;;5010059;28;20048;-73